sensor_id;sensor_type;location;lat;lon;timestamp;P1;durP1;ratioP1;P2;durP2;ratioP2
56413;SDS011;42318;48.452;19.526;2024-03-08T00:01:55;1.75;;;1.50;;
56413;SDS011;42318;48.452;19.526;2024-03-08T00:04:56;2.17;;;1.50;;
56413;SDS011;42318;48.452;19.526;2024-03-08T00:07:57;2.80;;;2.00;;
56413;SDS011;42318;48.452;19.526;2024-03-08T00:10:58;2.00;;;1.60;;
56413;SDS011;42318;48.452;19.526;2024-03-08T00:13:59;2.30;;;1.67;;
56413;SDS011;42318;48.452;19.526;2024-03-08T00:16:59;2.42;;;2.00;;
56413;SDS011;42318;48.452;19.526;2024-03-08T00:20:00;2.08;;;1.73;;
56413;SDS011;42318;48.452;19.526;2024-03-08T00:23:00;3.25;;;2.03;;
56413;SDS011;42318;48.452;19.526;2024-03-08T00:26:01;2.05;;;1.67;;
56413;SDS011;42318;48.452;19.526;2024-03-08T00:29:04;2.08;;;1.70;;
56413;SDS011;42318;48.452;19.526;2024-03-08T00:32:04;3.95;;;2.08;;
56413;SDS011;42318;48.452;19.526;2024-03-08T00:35:05;2.78;;;1.60;;
56413;SDS011;42318;48.452;19.526;2024-03-08T00:38:07;1.92;;;1.45;;
56413;SDS011;42318;48.452;19.526;2024-03-08T00:41:08;3.00;;;1.80;;
56413;SDS011;42318;48.452;19.526;2024-03-08T00:44:08;2.00;;;1.77;;
56413;SDS011;42318;48.452;19.526;2024-03-08T00:47:10;2.38;;;1.88;;
56413;SDS011;42318;48.452;19.526;2024-03-08T00:50:11;3.55;;;1.80;;
56413;SDS011;42318;48.452;19.526;2024-03-08T00:53:13;3.20;;;1.95;;
56413;SDS011;42318;48.452;19.526;2024-03-08T00:56:13;2.92;;;1.90;;
56413;SDS011;42318;48.452;19.526;2024-03-08T00:59:14;2.40;;;2.00;;
56413;SDS011;42318;48.452;19.526;2024-03-08T01:02:15;2.15;;;1.80;;
56413;SDS011;42318;48.452;19.526;2024-03-08T01:05:19;2.17;;;1.80;;
56413;SDS011;42318;48.452;19.526;2024-03-08T01:08:19;3.42;;;1.90;;
56413;SDS011;42318;48.452;19.526;2024-03-08T01:11:20;2.53;;;1.73;;
56413;SDS011;42318;48.452;19.526;2024-03-08T01:14:21;2.00;;;1.67;;
56413;SDS011;42318;48.452;19.526;2024-03-08T01:17:26;2.47;;;1.85;;
56413;SDS011;42318;48.452;19.526;2024-03-08T01:20:26;2.40;;;1.90;;
56413;SDS011;42318;48.452;19.526;2024-03-08T01:23:27;2.40;;;1.92;;
56413;SDS011;42318;48.452;19.526;2024-03-08T01:26:29;1.88;;;1.67;;
56413;SDS011;42318;48.452;19.526;2024-03-08T01:29:30;2.47;;;1.83;;
56413;SDS011;42318;48.452;19.526;2024-03-08T01:32:30;2.00;;;1.77;;
56413;SDS011;42318;48.452;19.526;2024-03-08T01:35:31;2.30;;;1.70;;
56413;SDS011;42318;48.452;19.526;2024-03-08T01:38:32;2.78;;;2.10;;
56413;SDS011;42318;48.452;19.526;2024-03-08T01:41:32;2.90;;;1.85;;
56413;SDS011;42318;48.452;19.526;2024-03-08T01:44:34;2.45;;;1.70;;
56413;SDS011;42318;48.452;19.526;2024-03-08T01:47:35;2.08;;;1.70;;
56413;SDS011;42318;48.452;19.526;2024-03-08T01:50:36;2.22;;;1.90;;
56413;SDS011;42318;48.452;19.526;2024-03-08T01:53:36;1.95;;;1.70;;
56413;SDS011;42318;48.452;19.526;2024-03-08T01:56:37;2.65;;;2.15;;
56413;SDS011;42318;48.452;19.526;2024-03-08T01:59:39;2.67;;;1.98;;
56413;SDS011;42318;48.452;19.526;2024-03-08T02:02:40;2.45;;;1.80;;
56413;SDS011;42318;48.452;19.526;2024-03-08T02:05:43;2.20;;;1.95;;
56413;SDS011;42318;48.452;19.526;2024-03-08T02:08:46;2.67;;;1.80;;
56413;SDS011;42318;48.452;19.526;2024-03-08T02:11:47;2.25;;;1.92;;
56413;SDS011;42318;48.452;19.526;2024-03-08T02:14:48;2.70;;;1.90;;
56413;SDS011;42318;48.452;19.526;2024-03-08T02:17:48;2.15;;;1.70;;
56413;SDS011;42318;48.452;19.526;2024-03-08T02:20:49;2.15;;;1.75;;
56413;SDS011;42318;48.452;19.526;2024-03-08T02:23:52;2.55;;;1.92;;
56413;SDS011;42318;48.452;19.526;2024-03-08T02:26:53;2.60;;;2.00;;
56413;SDS011;42318;48.452;19.526;2024-03-08T02:29:54;2.70;;;2.00;;
56413;SDS011;42318;48.452;19.526;2024-03-08T02:32:58;2.30;;;1.90;;
56413;SDS011;42318;48.452;19.526;2024-03-08T02:35:59;2.60;;;1.80;;
56413;SDS011;42318;48.452;19.526;2024-03-08T02:39:03;2.92;;;2.25;;
56413;SDS011;42318;48.452;19.526;2024-03-08T02:42:05;2.70;;;1.95;;
56413;SDS011;42318;48.452;19.526;2024-03-08T02:45:06;2.72;;;1.85;;
56413;SDS011;42318;48.452;19.526;2024-03-08T02:48:10;2.93;;;2.17;;
56413;SDS011;42318;48.452;19.526;2024-03-08T02:51:11;2.50;;;2.00;;
56413;SDS011;42318;48.452;19.526;2024-03-08T02:54:13;2.70;;;2.00;;
56413;SDS011;42318;48.452;19.526;2024-03-08T02:57:14;2.53;;;1.98;;
56413;SDS011;42318;48.452;19.526;2024-03-08T03:00:15;3.08;;;1.95;;
56413;SDS011;42318;48.452;19.526;2024-03-08T03:03:16;2.90;;;1.83;;
56413;SDS011;42318;48.452;19.526;2024-03-08T03:06:17;3.08;;;2.05;;
56413;SDS011;42318;48.452;19.526;2024-03-08T03:09:19;2.60;;;2.00;;
56413;SDS011;42318;48.452;19.526;2024-03-08T03:12:25;2.20;;;1.80;;
56413;SDS011;42318;48.452;19.526;2024-03-08T03:15:25;3.47;;;2.35;;
56413;SDS011;42318;48.452;19.526;2024-03-08T03:18:26;2.42;;;1.80;;
56413;SDS011;42318;48.452;19.526;2024-03-08T03:21:28;2.40;;;1.88;;
56413;SDS011;42318;48.452;19.526;2024-03-08T03:27:33;2.45;;;1.85;;
56413;SDS011;42318;48.452;19.526;2024-03-08T03:30:34;2.40;;;1.90;;
56413;SDS011;42318;48.452;19.526;2024-03-08T03:33:35;2.38;;;1.98;;
56413;SDS011;42318;48.452;19.526;2024-03-08T03:36:37;2.45;;;1.80;;
56413;SDS011;42318;48.452;19.526;2024-03-08T03:39:42;2.40;;;1.90;;
56413;SDS011;42318;48.452;19.526;2024-03-08T03:42:53;2.55;;;2.03;;
56413;SDS011;42318;48.452;19.526;2024-03-08T03:45:54;2.58;;;2.05;;
56413;SDS011;42318;48.452;19.526;2024-03-08T03:48:56;2.50;;;2.10;;
56413;SDS011;42318;48.452;19.526;2024-03-08T03:51:56;2.78;;;1.95;;
56413;SDS011;42318;48.452;19.526;2024-03-08T03:54:57;2.35;;;2.00;;
56413;SDS011;42318;48.452;19.526;2024-03-08T03:57:58;2.75;;;2.00;;
56413;SDS011;42318;48.452;19.526;2024-03-08T04:01:01;2.60;;;2.17;;
56413;SDS011;42318;48.452;19.526;2024-03-08T04:04:04;2.42;;;1.80;;
56413;SDS011;42318;48.452;19.526;2024-03-08T04:07:05;3.45;;;2.30;;
56413;SDS011;42318;48.452;19.526;2024-03-08T04:10:07;2.78;;;2.03;;
56413;SDS011;42318;48.452;19.526;2024-03-08T04:13:09;2.95;;;2.50;;
56413;SDS011;42318;48.452;19.526;2024-03-08T04:16:10;2.78;;;2.30;;
56413;SDS011;42318;48.452;19.526;2024-03-08T04:19:11;2.78;;;2.03;;
56413;SDS011;42318;48.452;19.526;2024-03-08T04:22:12;2.53;;;1.95;;
56413;SDS011;42318;48.452;19.526;2024-03-08T04:25:13;2.55;;;1.90;;
56413;SDS011;42318;48.452;19.526;2024-03-08T04:28:13;2.67;;;2.13;;
56413;SDS011;42318;48.452;19.526;2024-03-08T04:31:14;2.75;;;2.22;;
56413;SDS011;42318;48.452;19.526;2024-03-08T04:34:15;2.90;;;2.10;;
56413;SDS011;42318;48.452;19.526;2024-03-08T04:37:16;3.05;;;2.45;;
56413;SDS011;42318;48.452;19.526;2024-03-08T04:40:22;2.58;;;2.03;;
56413;SDS011;42318;48.452;19.526;2024-03-08T04:43:23;2.63;;;2.40;;
56413;SDS011;42318;48.452;19.526;2024-03-08T04:46:26;2.93;;;2.40;;
56413;SDS011;42318;48.452;19.526;2024-03-08T04:49:28;3.25;;;2.72;;
56413;SDS011;42318;48.452;19.526;2024-03-08T04:52:29;2.40;;;2.03;;
56413;SDS011;42318;48.452;19.526;2024-03-08T04:55:30;2.40;;;2.15;;
56413;SDS011;42318;48.452;19.526;2024-03-08T04:58:30;2.97;;;2.08;;
56413;SDS011;42318;48.452;19.526;2024-03-08T05:01:31;2.45;;;2.13;;
56413;SDS011;42318;48.452;19.526;2024-03-08T05:04:31;3.05;;;2.47;;
56413;SDS011;42318;48.452;19.526;2024-03-08T05:07:32;3.42;;;2.60;;
56413;SDS011;42318;48.452;19.526;2024-03-08T05:10:33;3.75;;;2.55;;
56413;SDS011;42318;48.452;19.526;2024-03-08T05:13:33;3.75;;;2.38;;
56413;SDS011;42318;48.452;19.526;2024-03-08T05:16:37;3.03;;;2.67;;
56413;SDS011;42318;48.452;19.526;2024-03-08T05:19:38;4.15;;;2.63;;
56413;SDS011;42318;48.452;19.526;2024-03-08T05:22:38;2.97;;;2.40;;
56413;SDS011;42318;48.452;19.526;2024-03-08T05:25:40;4.72;;;2.40;;
56413;SDS011;42318;48.452;19.526;2024-03-08T05:28:41;3.28;;;2.40;;
56413;SDS011;42318;48.452;19.526;2024-03-08T05:31:49;2.90;;;2.55;;
56413;SDS011;42318;48.452;19.526;2024-03-08T05:34:52;2.85;;;2.40;;
56413;SDS011;42318;48.452;19.526;2024-03-08T05:37:53;2.47;;;2.22;;
56413;SDS011;42318;48.452;19.526;2024-03-08T05:40:54;3.08;;;2.30;;
56413;SDS011;42318;48.452;19.526;2024-03-08T05:43:55;4.68;;;2.50;;
56413;SDS011;42318;48.452;19.526;2024-03-08T05:46:55;3.53;;;2.70;;
56413;SDS011;42318;48.452;19.526;2024-03-08T05:49:56;2.53;;;2.33;;
56413;SDS011;42318;48.452;19.526;2024-03-08T05:52:57;2.55;;;2.20;;
56413;SDS011;42318;48.452;19.526;2024-03-08T05:55:58;3.22;;;2.50;;
56413;SDS011;42318;48.452;19.526;2024-03-08T05:58:59;3.25;;;2.33;;
56413;SDS011;42318;48.452;19.526;2024-03-08T06:02:00;3.67;;;2.58;;
56413;SDS011;42318;48.452;19.526;2024-03-08T06:05:01;3.75;;;2.30;;
56413;SDS011;42318;48.452;19.526;2024-03-08T06:08:02;2.83;;;1.95;;
56413;SDS011;42318;48.452;19.526;2024-03-08T06:11:03;2.90;;;2.42;;
56413;SDS011;42318;48.452;19.526;2024-03-08T06:14:06;2.88;;;2.50;;
56413;SDS011;42318;48.452;19.526;2024-03-08T06:17:06;3.28;;;2.50;;
56413;SDS011;42318;48.452;19.526;2024-03-08T06:20:07;3.35;;;2.60;;
56413;SDS011;42318;48.452;19.526;2024-03-08T06:23:13;3.67;;;2.30;;
56413;SDS011;42318;48.452;19.526;2024-03-08T06:26:18;3.05;;;2.53;;
56413;SDS011;42318;48.452;19.526;2024-03-08T06:29:18;3.40;;;2.25;;
56413;SDS011;42318;48.452;19.526;2024-03-08T06:32:19;3.40;;;2.25;;
56413;SDS011;42318;48.452;19.526;2024-03-08T06:35:19;3.58;;;2.20;;
56413;SDS011;42318;48.452;19.526;2024-03-08T06:38:20;2.65;;;2.20;;
56413;SDS011;42318;48.452;19.526;2024-03-08T06:41:21;3.13;;;2.83;;
56413;SDS011;42318;48.452;19.526;2024-03-08T06:44:21;3.33;;;2.40;;
56413;SDS011;42318;48.452;19.526;2024-03-08T06:47:22;3.35;;;2.80;;
56413;SDS011;42318;48.452;19.526;2024-03-08T06:50:26;3.03;;;2.60;;
56413;SDS011;42318;48.452;19.526;2024-03-08T06:53:26;2.97;;;2.42;;
56413;SDS011;42318;48.452;19.526;2024-03-08T06:56:27;2.95;;;2.65;;
56413;SDS011;42318;48.452;19.526;2024-03-08T06:59:27;2.95;;;2.55;;
56413;SDS011;42318;48.452;19.526;2024-03-08T07:02:28;3.80;;;2.67;;
56413;SDS011;42318;48.452;19.526;2024-03-08T07:05:29;3.20;;;2.35;;
56413;SDS011;42318;48.452;19.526;2024-03-08T07:08:31;3.83;;;2.88;;
56413;SDS011;42318;48.452;19.526;2024-03-08T07:11:31;3.90;;;3.08;;
56413;SDS011;42318;48.452;19.526;2024-03-08T07:14:32;4.15;;;2.55;;
56413;SDS011;42318;48.452;19.526;2024-03-08T07:17:32;4.18;;;2.60;;
56413;SDS011;42318;48.452;19.526;2024-03-08T07:20:35;3.60;;;2.70;;
56413;SDS011;42318;48.452;19.526;2024-03-08T07:23:37;3.10;;;2.78;;
56413;SDS011;42318;48.452;19.526;2024-03-08T07:26:53;3.55;;;2.80;;
56413;SDS011;42318;48.452;19.526;2024-03-08T07:29:55;4.18;;;2.88;;
56413;SDS011;42318;48.452;19.526;2024-03-08T07:32:56;3.88;;;2.88;;
56413;SDS011;42318;48.452;19.526;2024-03-08T07:35:57;3.30;;;2.50;;
56413;SDS011;42318;48.452;19.526;2024-03-08T07:38:58;4.20;;;2.70;;
56413;SDS011;42318;48.452;19.526;2024-03-08T07:41:58;2.92;;;2.33;;
56413;SDS011;42318;48.452;19.526;2024-03-08T07:44:59;3.65;;;2.65;;
56413;SDS011;42318;48.452;19.526;2024-03-08T07:47:59;3.70;;;2.72;;
56413;SDS011;42318;48.452;19.526;2024-03-08T07:51:00;4.13;;;3.22;;
56413;SDS011;42318;48.452;19.526;2024-03-08T07:54:01;3.83;;;3.28;;
56413;SDS011;42318;48.452;19.526;2024-03-08T07:57:01;3.13;;;2.55;;
56413;SDS011;42318;48.452;19.526;2024-03-08T08:00:04;3.95;;;3.15;;
56413;SDS011;42318;48.452;19.526;2024-03-08T08:03:08;4.07;;;3.00;;
56413;SDS011;42318;48.452;19.526;2024-03-08T08:06:09;3.60;;;3.15;;
56413;SDS011;42318;48.452;19.526;2024-03-08T08:09:10;4.75;;;2.70;;
56413;SDS011;42318;48.452;19.526;2024-03-08T08:12:22;4.47;;;2.75;;
56413;SDS011;42318;48.452;19.526;2024-03-08T08:15:23;5.55;;;3.05;;
56413;SDS011;42318;48.452;19.526;2024-03-08T08:18:23;5.43;;;3.03;;
56413;SDS011;42318;48.452;19.526;2024-03-08T08:21:26;4.20;;;3.10;;
56413;SDS011;42318;48.452;19.526;2024-03-08T08:24:26;4.32;;;3.50;;
56413;SDS011;42318;48.452;19.526;2024-03-08T08:27:27;4.05;;;3.33;;
56413;SDS011;42318;48.452;19.526;2024-03-08T08:30:28;3.88;;;3.33;;
56413;SDS011;42318;48.452;19.526;2024-03-08T08:33:29;5.25;;;3.30;;
56413;SDS011;42318;48.452;19.526;2024-03-08T08:36:29;5.10;;;3.67;;
56413;SDS011;42318;48.452;19.526;2024-03-08T08:39:30;5.88;;;3.78;;
56413;SDS011;42318;48.452;19.526;2024-03-08T08:42:30;5.25;;;3.90;;
56413;SDS011;42318;48.452;19.526;2024-03-08T08:45:32;7.43;;;4.40;;
56413;SDS011;42318;48.452;19.526;2024-03-08T08:48:33;10.68;;;4.50;;
56413;SDS011;42318;48.452;19.526;2024-03-08T08:51:35;12.80;;;4.70;;
56413;SDS011;42318;48.452;19.526;2024-03-08T08:54:36;15.93;;;5.07;;
56413;SDS011;42318;48.452;19.526;2024-03-08T08:57:37;22.35;;;5.97;;
56413;SDS011;42318;48.452;19.526;2024-03-08T09:00:38;14.23;;;5.35;;
56413;SDS011;42318;48.452;19.526;2024-03-08T09:03:39;19.20;;;5.28;;
56413;SDS011;42318;48.452;19.526;2024-03-08T09:06:44;23.63;;;5.97;;
56413;SDS011;42318;48.452;19.526;2024-03-08T09:09:45;14.50;;;5.35;;
56413;SDS011;42318;48.452;19.526;2024-03-08T09:12:46;15.93;;;5.32;;
56413;SDS011;42318;48.452;19.526;2024-03-08T09:15:47;21.83;;;6.38;;
56413;SDS011;42318;48.452;19.526;2024-03-08T09:18:48;17.98;;;6.05;;
56413;SDS011;42318;48.452;19.526;2024-03-08T09:21:48;15.65;;;5.28;;
56413;SDS011;42318;48.452;19.526;2024-03-08T09:24:49;15.38;;;5.97;;
56413;SDS011;42318;48.452;19.526;2024-03-08T09:27:50;14.07;;;5.45;;
56413;SDS011;42318;48.452;19.526;2024-03-08T09:30:50;11.73;;;5.60;;
56413;SDS011;42318;48.452;19.526;2024-03-08T09:33:51;16.48;;;6.00;;
56413;SDS011;42318;48.452;19.526;2024-03-08T09:36:52;14.73;;;5.95;;
56413;SDS011;42318;48.452;19.526;2024-03-08T09:39:53;10.80;;;5.82;;
56413;SDS011;42318;48.452;19.526;2024-03-08T09:42:53;16.77;;;5.95;;
56413;SDS011;42318;48.452;19.526;2024-03-08T09:45:55;13.18;;;5.85;;
56413;SDS011;42318;48.452;19.526;2024-03-08T09:48:57;14.18;;;6.70;;
56413;SDS011;42318;48.452;19.526;2024-03-08T09:51:58;14.27;;;5.80;;
56413;SDS011;42318;48.452;19.526;2024-03-08T09:55:00;18.70;;;6.50;;
56413;SDS011;42318;48.452;19.526;2024-03-08T09:58:02;12.27;;;5.75;;
56413;SDS011;42318;48.452;19.526;2024-03-08T10:01:24;12.60;;;6.32;;
56413;SDS011;42318;48.452;19.526;2024-03-08T10:04:26;15.23;;;5.45;;
56413;SDS011;42318;48.452;19.526;2024-03-08T10:07:28;12.13;;;6.65;;
56413;SDS011;42318;48.452;19.526;2024-03-08T10:10:29;13.70;;;6.15;;
56413;SDS011;42318;48.452;19.526;2024-03-08T10:13:29;12.98;;;5.85;;
56413;SDS011;42318;48.452;19.526;2024-03-08T10:16:32;11.32;;;5.82;;
56413;SDS011;42318;48.452;19.526;2024-03-08T10:19:34;13.60;;;5.88;;
56413;SDS011;42318;48.452;19.526;2024-03-08T10:22:35;9.27;;;5.85;;
56413;SDS011;42318;48.452;19.526;2024-03-08T10:25:35;13.00;;;5.95;;
56413;SDS011;42318;48.452;19.526;2024-03-08T10:28:37;12.77;;;6.03;;
56413;SDS011;42318;48.452;19.526;2024-03-08T10:31:38;9.40;;;6.38;;
56413;SDS011;42318;48.452;19.526;2024-03-08T10:34:39;10.77;;;7.53;;
56413;SDS011;42318;48.452;19.526;2024-03-08T10:37:48;13.45;;;8.10;;
56413;SDS011;42318;48.452;19.526;2024-03-08T10:40:59;11.93;;;7.53;;
56413;SDS011;42318;48.452;19.526;2024-03-08T10:44:18;13.70;;;8.30;;
56413;SDS011;42318;48.452;19.526;2024-03-08T10:47:35;13.05;;;9.05;;
56413;SDS011;42318;48.452;19.526;2024-03-08T10:50:41;16.25;;;10.55;;
56413;SDS011;42318;48.452;19.526;2024-03-08T10:53:46;17.20;;;10.00;;
56413;SDS011;42318;48.452;19.526;2024-03-08T10:56:48;21.48;;;10.32;;
56413;SDS011;42318;48.452;19.526;2024-03-08T10:59:50;18.83;;;10.35;;
56413;SDS011;42318;48.452;19.526;2024-03-08T11:02:52;16.50;;;10.60;;
56413;SDS011;42318;48.452;19.526;2024-03-08T11:05:54;15.93;;;10.93;;
56413;SDS011;42318;48.452;19.526;2024-03-08T11:08:55;19.80;;;11.10;;
56413;SDS011;42318;48.452;19.526;2024-03-08T11:15:17;14.45;;;9.45;;
56413;SDS011;42318;48.452;19.526;2024-03-08T11:18:21;17.52;;;9.85;;
56413;SDS011;42318;48.452;19.526;2024-03-08T11:21:21;12.63;;;8.35;;
56413;SDS011;42318;48.452;19.526;2024-03-08T11:24:26;16.70;;;8.85;;
56413;SDS011;42318;48.452;19.526;2024-03-08T11:27:30;14.02;;;8.15;;
56413;SDS011;42318;48.452;19.526;2024-03-08T11:30:31;12.98;;;8.07;;
56413;SDS011;42318;48.452;19.526;2024-03-08T11:33:32;14.10;;;8.35;;
56413;SDS011;42318;48.452;19.526;2024-03-08T11:36:35;14.27;;;8.27;;
56413;SDS011;42318;48.452;19.526;2024-03-08T11:39:37;18.20;;;8.70;;
56413;SDS011;42318;48.452;19.526;2024-03-08T11:42:39;16.38;;;8.40;;
56413;SDS011;42318;48.452;19.526;2024-03-08T11:45:41;18.45;;;8.32;;
56413;SDS011;42318;48.452;19.526;2024-03-08T11:48:43;15.02;;;7.90;;
56413;SDS011;42318;48.452;19.526;2024-03-08T11:51:44;12.35;;;7.38;;
56413;SDS011;42318;48.452;19.526;2024-03-08T11:54:55;13.80;;;7.68;;
56413;SDS011;42318;48.452;19.526;2024-03-08T11:58:03;11.23;;;7.25;;
56413;SDS011;42318;48.452;19.526;2024-03-08T12:01:08;10.35;;;7.38;;
56413;SDS011;42318;48.452;19.526;2024-03-08T12:04:12;10.60;;;6.90;;
56413;SDS011;42318;48.452;19.526;2024-03-08T12:07:13;16.90;;;8.00;;
56413;SDS011;42318;48.452;19.526;2024-03-08T12:10:18;25.13;;;15.93;;
56413;SDS011;42318;48.452;19.526;2024-03-08T12:13:19;24.60;;;12.25;;
56413;SDS011;42318;48.452;19.526;2024-03-08T12:16:20;18.38;;;10.45;;
56413;SDS011;42318;48.452;19.526;2024-03-08T12:19:23;16.30;;;10.15;;
56413;SDS011;42318;48.452;19.526;2024-03-08T12:22:26;16.10;;;11.07;;
56413;SDS011;42318;48.452;19.526;2024-03-08T12:25:30;17.30;;;11.43;;
56413;SDS011;42318;48.452;19.526;2024-03-08T12:28:37;16.42;;;9.98;;
56413;SDS011;42318;48.452;19.526;2024-03-08T12:31:38;21.38;;;12.70;;
56413;SDS011;42318;48.452;19.526;2024-03-08T12:34:39;23.45;;;12.07;;
56413;SDS011;42318;48.452;19.526;2024-03-08T12:37:40;17.92;;;9.90;;
56413;SDS011;42318;48.452;19.526;2024-03-08T12:40:41;20.90;;;10.32;;
56413;SDS011;42318;48.452;19.526;2024-03-08T12:43:42;19.92;;;9.88;;
56413;SDS011;42318;48.452;19.526;2024-03-08T12:46:48;21.27;;;10.05;;
56413;SDS011;42318;48.452;19.526;2024-03-08T12:49:49;16.52;;;9.45;;
56413;SDS011;42318;48.452;19.526;2024-03-08T12:52:50;14.10;;;9.52;;
56413;SDS011;42318;48.452;19.526;2024-03-08T12:55:53;22.02;;;9.32;;
56413;SDS011;42318;48.452;19.526;2024-03-08T12:58:56;18.90;;;8.55;;
56413;SDS011;42318;48.452;19.526;2024-03-08T13:01:57;15.15;;;9.10;;
56413;SDS011;42318;48.452;19.526;2024-03-08T13:05:00;14.10;;;8.52;;
56413;SDS011;42318;48.452;19.526;2024-03-08T13:08:01;16.83;;;9.07;;
56413;SDS011;42318;48.452;19.526;2024-03-08T13:11:02;16.80;;;8.75;;
56413;SDS011;42318;48.452;19.526;2024-03-08T13:14:04;13.35;;;8.40;;
56413;SDS011;42318;48.452;19.526;2024-03-08T13:17:07;16.73;;;8.73;;
56413;SDS011;42318;48.452;19.526;2024-03-08T13:20:11;17.13;;;8.83;;
56413;SDS011;42318;48.452;19.526;2024-03-08T13:23:16;17.52;;;9.65;;
56413;SDS011;42318;48.452;19.526;2024-03-08T13:26:18;16.55;;;8.82;;
56413;SDS011;42318;48.452;19.526;2024-03-08T13:29:19;14.63;;;8.90;;
56413;SDS011;42318;48.452;19.526;2024-03-08T13:32:21;15.48;;;8.80;;
56413;SDS011;42318;48.452;19.526;2024-03-08T13:35:22;17.10;;;9.27;;
56413;SDS011;42318;48.452;19.526;2024-03-08T13:38:27;13.43;;;9.32;;
56413;SDS011;42318;48.452;19.526;2024-03-08T13:41:28;14.15;;;9.00;;
56413;SDS011;42318;48.452;19.526;2024-03-08T13:44:29;17.20;;;9.10;;
56413;SDS011;42318;48.452;19.526;2024-03-08T13:47:30;14.40;;;8.40;;
56413;SDS011;42318;48.452;19.526;2024-03-08T13:50:32;14.73;;;8.45;;
56413;SDS011;42318;48.452;19.526;2024-03-08T13:53:32;16.30;;;8.98;;
56413;SDS011;42318;48.452;19.526;2024-03-08T13:56:35;15.65;;;8.35;;
56413;SDS011;42318;48.452;19.526;2024-03-08T13:59:37;15.32;;;9.65;;
56413;SDS011;42318;48.452;19.526;2024-03-08T14:02:38;19.48;;;8.43;;
56413;SDS011;42318;48.452;19.526;2024-03-08T14:05:41;15.55;;;8.77;;
56413;SDS011;42318;48.452;19.526;2024-03-08T14:08:42;13.75;;;8.50;;
56413;SDS011;42318;48.452;19.526;2024-03-08T14:11:43;11.93;;;7.97;;
56413;SDS011;42318;48.452;19.526;2024-03-08T14:14:47;20.25;;;8.73;;
56413;SDS011;42318;48.452;19.526;2024-03-08T14:17:54;14.73;;;9.10;;
56413;SDS011;42318;48.452;19.526;2024-03-08T14:20:58;15.85;;;8.95;;
56413;SDS011;42318;48.452;19.526;2024-03-08T14:23:58;17.52;;;8.95;;
56413;SDS011;42318;48.452;19.526;2024-03-08T14:26:59;14.73;;;8.85;;
56413;SDS011;42318;48.452;19.526;2024-03-08T14:30:00;14.60;;;8.70;;
56413;SDS011;42318;48.452;19.526;2024-03-08T14:33:01;15.60;;;8.60;;
56413;SDS011;42318;48.452;19.526;2024-03-08T14:36:02;20.00;;;9.25;;
56413;SDS011;42318;48.452;19.526;2024-03-08T14:39:05;17.45;;;8.32;;
56413;SDS011;42318;48.452;19.526;2024-03-08T14:42:07;17.88;;;8.57;;
56413;SDS011;42318;48.452;19.526;2024-03-08T14:45:10;15.52;;;8.60;;
56413;SDS011;42318;48.452;19.526;2024-03-08T14:48:11;14.15;;;8.25;;
56413;SDS011;42318;48.452;19.526;2024-03-08T14:51:12;16.63;;;9.90;;
56413;SDS011;42318;48.452;19.526;2024-03-08T14:54:14;18.42;;;8.88;;
56413;SDS011;42318;48.452;19.526;2024-03-08T14:57:15;16.77;;;8.60;;
56413;SDS011;42318;48.452;19.526;2024-03-08T15:00:15;12.32;;;8.70;;
56413;SDS011;42318;48.452;19.526;2024-03-08T15:03:19;14.20;;;8.55;;
56413;SDS011;42318;48.452;19.526;2024-03-08T15:06:20;13.27;;;8.68;;
56413;SDS011;42318;48.452;19.526;2024-03-08T15:09:21;13.45;;;8.57;;
56413;SDS011;42318;48.452;19.526;2024-03-08T15:12:22;11.82;;;9.05;;
56413;SDS011;42318;48.452;19.526;2024-03-08T15:15:26;15.80;;;9.25;;
56413;SDS011;42318;48.452;19.526;2024-03-08T15:18:26;15.20;;;8.68;;
56413;SDS011;42318;48.452;19.526;2024-03-08T15:21:34;22.92;;;9.73;;
56413;SDS011;42318;48.452;19.526;2024-03-08T15:24:36;15.18;;;8.77;;
56413;SDS011;42318;48.452;19.526;2024-03-08T15:27:38;17.70;;;9.70;;
56413;SDS011;42318;48.452;19.526;2024-03-08T15:30:41;15.20;;;10.05;;
56413;SDS011;42318;48.452;19.526;2024-03-08T15:33:47;17.10;;;10.20;;
56413;SDS011;42318;48.452;19.526;2024-03-08T15:36:52;19.98;;;10.88;;
56413;SDS011;42318;48.452;19.526;2024-03-08T15:39:53;19.27;;;10.02;;
56413;SDS011;42318;48.452;19.526;2024-03-08T15:45:55;15.85;;;10.23;;
56413;SDS011;42318;48.452;19.526;2024-03-08T15:48:58;17.52;;;10.30;;
56413;SDS011;42318;48.452;19.526;2024-03-08T15:51:58;21.20;;;11.95;;
56413;SDS011;42318;48.452;19.526;2024-03-08T15:54:59;17.90;;;10.63;;
56413;SDS011;42318;48.452;19.526;2024-03-08T15:58:00;17.40;;;10.77;;
56413;SDS011;42318;48.452;19.526;2024-03-08T16:01:01;22.33;;;11.60;;
56413;SDS011;42318;48.452;19.526;2024-03-08T16:04:04;15.98;;;9.85;;
56413;SDS011;42318;48.452;19.526;2024-03-08T16:07:06;15.45;;;10.57;;
56413;SDS011;42318;48.452;19.526;2024-03-08T16:10:07;15.23;;;9.00;;
56413;SDS011;42318;48.452;19.526;2024-03-08T16:13:09;17.33;;;9.85;;
56413;SDS011;42318;48.452;19.526;2024-03-08T16:16:10;14.20;;;9.40;;
56413;SDS011;42318;48.452;19.526;2024-03-08T16:19:12;15.38;;;9.27;;
56413;SDS011;42318;48.452;19.526;2024-03-08T16:22:14;14.57;;;9.63;;
56413;SDS011;42318;48.452;19.526;2024-03-08T16:25:15;14.40;;;10.02;;
56413;SDS011;42318;48.452;19.526;2024-03-08T16:28:19;14.13;;;9.15;;
56413;SDS011;42318;48.452;19.526;2024-03-08T16:34:25;30.73;;;13.52;;
56413;SDS011;42318;48.452;19.526;2024-03-08T16:37:25;23.80;;;11.23;;
56413;SDS011;42318;48.452;19.526;2024-03-08T16:40:29;21.23;;;11.45;;
56413;SDS011;42318;48.452;19.526;2024-03-08T16:43:29;19.55;;;11.88;;
56413;SDS011;42318;48.452;19.526;2024-03-08T16:46:30;13.40;;;10.27;;
56413;SDS011;42318;48.452;19.526;2024-03-08T16:49:32;17.48;;;10.55;;
56413;SDS011;42318;48.452;19.526;2024-03-08T16:52:36;16.15;;;9.68;;
56413;SDS011;42318;48.452;19.526;2024-03-08T16:55:36;15.63;;;10.50;;
56413;SDS011;42318;48.452;19.526;2024-03-08T16:58:38;14.70;;;9.77;;
56413;SDS011;42318;48.452;19.526;2024-03-08T17:01:41;11.45;;;9.02;;
56413;SDS011;42318;48.452;19.526;2024-03-08T17:04:42;16.30;;;9.77;;
56413;SDS011;42318;48.452;19.526;2024-03-08T17:07:43;18.45;;;9.65;;
56413;SDS011;42318;48.452;19.526;2024-03-08T17:10:48;14.85;;;9.85;;
56413;SDS011;42318;48.452;19.526;2024-03-08T17:13:49;12.82;;;9.48;;
56413;SDS011;42318;48.452;19.526;2024-03-08T17:16:49;14.38;;;9.43;;
56413;SDS011;42318;48.452;19.526;2024-03-08T17:19:50;13.25;;;8.75;;
56413;SDS011;42318;48.452;19.526;2024-03-08T17:22:55;12.10;;;8.85;;
56413;SDS011;42318;48.452;19.526;2024-03-08T17:25:56;13.43;;;9.13;;
56413;SDS011;42318;48.452;19.526;2024-03-08T17:28:57;12.55;;;9.05;;
56413;SDS011;42318;48.452;19.526;2024-03-08T17:31:58;9.20;;;7.80;;
56413;SDS011;42318;48.452;19.526;2024-03-08T17:34:59;13.93;;;8.50;;
56413;SDS011;42318;48.452;19.526;2024-03-08T17:38:01;10.55;;;7.90;;
56413;SDS011;42318;48.452;19.526;2024-03-08T17:41:12;12.40;;;8.82;;
56413;SDS011;42318;48.452;19.526;2024-03-08T17:44:12;11.63;;;9.03;;
56413;SDS011;42318;48.452;19.526;2024-03-08T17:47:15;10.63;;;8.95;;
56413;SDS011;42318;48.452;19.526;2024-03-08T17:50:17;12.40;;;8.82;;
56413;SDS011;42318;48.452;19.526;2024-03-08T17:53:19;12.95;;;8.57;;
56413;SDS011;42318;48.452;19.526;2024-03-08T17:56:19;11.98;;;8.75;;
56413;SDS011;42318;48.452;19.526;2024-03-08T17:59:20;12.23;;;8.65;;
56413;SDS011;42318;48.452;19.526;2024-03-08T18:02:21;12.45;;;8.52;;